createdAt,value
2022-12-17T00:01:09.198Z,33.93
2022-12-17T00:03:56.874Z,34.40
2022-12-17T00:06:42.942Z,34.47
2022-12-17T00:09:29.800Z,34.90
2022-12-17T00:12:30.113Z,34.83
2022-12-17T00:15:15.894Z,34.37
2022-12-17T00:18:01.819Z,34.87
2022-12-17T00:20:48.019Z,33.90
2022-12-17T00:23:34.105Z,33.57
2022-12-17T00:26:21.422Z,33.87
2022-12-17T00:29:07.860Z,34.00
2022-12-17T00:31:53.911Z,33.70
2022-12-17T00:34:42.289Z,32.37
2022-12-17T00:37:29.705Z,30.63
2022-12-17T00:40:15.782Z,30.03
2022-12-17T00:43:02.801Z,29.27
2022-12-17T00:45:50.580Z,26.93
2022-12-17T00:48:36.994Z,24.23
2022-12-17T00:51:23.260Z,26.20
2022-12-17T00:54:08.777Z,23.20
2022-12-17T00:56:54.610Z,23.20
2022-12-17T00:59:43.195Z,22.83
2022-12-17T01:02:29.425Z,22.33
2022-12-17T01:05:15.376Z,23.50
2022-12-17T01:08:00.836Z,24.37
2022-12-17T01:10:46.763Z,24.53
2022-12-17T01:13:33.104Z,24.40
2022-12-17T01:16:23.237Z,21.93
2022-12-17T01:19:10.556Z,22.40
2022-12-17T01:21:56.396Z,22.73
2022-12-17T01:24:42.245Z,21.53
2022-12-17T01:27:28.240Z,21.20
2022-12-17T01:30:14.452Z,21.20
2022-12-17T01:33:01.872Z,20.57
2022-12-17T01:35:47.773Z,19.70
2022-12-17T01:38:34.883Z,19.63
2022-12-17T01:41:20.832Z,21.27
2022-12-17T01:44:06.789Z,20.53
2022-12-17T01:46:55.674Z,19.90
2022-12-17T01:49:45.011Z,19.97
2022-12-17T01:52:34.018Z,19.63
2022-12-17T01:55:20.922Z,21.10
2022-12-17T01:58:07.000Z,20.53
2022-12-17T02:00:53.080Z,21.53
2022-12-17T02:03:39.299Z,20.73
2022-12-17T02:06:35.711Z,20.57
2022-12-17T02:09:29.306Z,20.37
2022-12-17T02:12:21.122Z,21.00
2022-12-17T02:15:30.851Z,20.80
2022-12-17T02:18:22.682Z,21.20
2022-12-17T02:21:13.537Z,21.90
2022-12-17T02:24:07.820Z,19.83
2022-12-17T02:26:57.217Z,19.73
2022-12-17T02:29:45.987Z,18.73
2022-12-17T02:32:33.275Z,18.53
2022-12-17T02:35:21.477Z,17.33
2022-12-17T02:38:07.684Z,16.97
2022-12-17T02:40:54.857Z,17.83
2022-12-17T02:43:45.483Z,16.87
2022-12-17T02:46:31.803Z,17.87
2022-12-17T02:49:17.934Z,19.50
2022-12-17T02:52:04.058Z,18.87
2022-12-17T02:54:51.484Z,18.87
2022-12-17T02:57:39.974Z,20.17
2022-12-17T03:00:31.842Z,20.33
2022-12-17T03:03:17.914Z,18.80
2022-12-17T03:06:04.122Z,19.00
2022-12-17T03:08:50.206Z,17.73
2022-12-17T03:11:36.394Z,18.17
2022-12-17T03:14:22.065Z,19.00
2022-12-17T03:17:09.693Z,17.00
2022-12-17T03:19:55.551Z,18.00
2022-12-17T03:22:41.164Z,17.73
2022-12-17T03:25:27.212Z,17.80
2022-12-17T03:28:13.357Z,18.47
2022-12-17T03:30:59.202Z,19.93
2022-12-17T03:33:46.517Z,20.53
2022-12-17T03:36:32.507Z,20.93
2022-12-17T03:39:18.574Z,22.00
2022-12-17T03:42:04.684Z,22.40
2022-12-17T03:44:50.634Z,21.70
2022-12-17T03:47:36.261Z,22.03
2022-12-17T03:50:24.610Z,22.13
2022-12-17T03:53:10.807Z,21.80
2022-12-17T03:55:56.799Z,20.57
2022-12-17T03:58:42.575Z,21.60
2022-12-17T04:01:28.672Z,20.93
2022-12-17T04:04:14.465Z,21.20
2022-12-17T04:07:01.736Z,22.20
2022-12-17T04:09:49.678Z,21.43
2022-12-17T04:12:35.754Z,21.53
2022-12-17T04:15:23.719Z,21.87
2022-12-17T04:18:09.491Z,21.70
2022-12-17T04:20:55.239Z,22.77
2022-12-17T04:23:42.715Z,21.73
2022-12-17T04:26:28.355Z,22.80
2022-12-17T04:29:14.342Z,22.80
2022-12-17T04:32:00.635Z,23.03
2022-12-17T04:34:49.665Z,21.40
2022-12-17T04:37:35.252Z,22.33
2022-12-17T04:40:22.977Z,21.90
2022-12-17T04:43:11.245Z,22.67
2022-12-17T04:45:57.103Z,22.87
2022-12-17T04:48:43.467Z,22.77
2022-12-17T04:51:29.529Z,22.10
2022-12-17T04:54:20.511Z,23.83
2022-12-17T04:57:07.320Z,24.30
2022-12-17T04:59:52.965Z,24.23
2022-12-17T05:02:42.692Z,24.60
2022-12-17T05:05:28.718Z,24.10
2022-12-17T05:08:14.707Z,24.13
2022-12-17T05:11:00.841Z,24.43
2022-12-17T05:13:48.441Z,25.20
2022-12-17T05:16:34.445Z,25.60
2022-12-17T05:19:20.045Z,24.70
2022-12-17T05:22:06.062Z,26.83
2022-12-17T05:24:52.091Z,24.33
2022-12-17T05:27:38.018Z,25.10
2022-12-17T05:30:26.219Z,24.60
2022-12-17T05:33:17.665Z,24.07
2022-12-17T05:36:03.891Z,25.07
2022-12-17T05:38:48.991Z,25.53
2022-12-17T05:41:34.710Z,24.40
2022-12-17T05:44:20.592Z,24.70
2022-12-17T05:47:07.690Z,25.00
2022-12-17T05:49:53.665Z,24.13
2022-12-17T05:52:42.403Z,23.67
2022-12-17T05:55:28.357Z,25.43
2022-12-17T05:58:20.828Z,26.13
2022-12-17T06:01:06.611Z,26.07
2022-12-17T06:03:53.789Z,26.70
2022-12-17T06:06:39.577Z,26.17
2022-12-17T06:09:25.661Z,26.73
2022-12-17T06:12:11.533Z,28.63
2022-12-17T06:14:57.558Z,26.00
2022-12-17T06:17:45.596Z,26.03
2022-12-17T06:20:32.722Z,26.50
2022-12-17T06:23:19.314Z,27.23
2022-12-17T06:26:05.099Z,28.37
2022-12-17T06:28:51.391Z,27.73
2022-12-17T06:31:37.613Z,29.37
2022-12-17T06:34:23.522Z,30.40
2022-12-17T06:37:10.567Z,29.53
2022-12-17T06:39:56.328Z,30.33
2022-12-17T06:42:42.364Z,32.50
2022-12-17T06:45:28.219Z,32.67
2022-12-17T06:48:20.569Z,33.40
2022-12-17T06:51:06.173Z,33.30
2022-12-17T06:53:53.163Z,35.60
2022-12-17T06:56:39.119Z,36.77
2022-12-17T06:59:24.957Z,39.80
2022-12-17T07:02:10.898Z,42.07
2022-12-17T07:05:11.287Z,42.40
2022-12-17T07:07:57.347Z,45.37
2022-12-17T07:10:44.313Z,45.50
2022-12-17T07:13:30.347Z,46.40
2022-12-17T07:16:16.415Z,50.43
2022-12-17T07:19:02.458Z,49.07
2022-12-17T07:21:48.473Z,48.43
2022-12-17T07:24:34.226Z,53.20
2022-12-17T07:27:21.477Z,50.43
2022-12-17T07:30:07.548Z,49.43
2022-12-17T07:32:53.360Z,51.40
2022-12-17T07:35:40.095Z,52.30
2022-12-17T07:38:26.136Z,51.37
2022-12-17T07:41:12.034Z,53.00
2022-12-17T07:43:59.276Z,54.43
2022-12-17T07:46:53.791Z,53.10
2022-12-17T07:49:39.691Z,54.67
2022-12-17T07:52:25.445Z,56.63
2022-12-17T07:55:15.399Z,55.83
2022-12-17T07:58:04.024Z,54.37
2022-12-17T08:00:51.396Z,57.70
2022-12-17T08:03:37.288Z,53.30
2022-12-17T08:06:35.123Z,53.53
2022-12-17T08:09:20.872Z,54.37
2022-12-17T08:12:06.896Z,54.07
2022-12-17T08:14:52.651Z,51.87
2022-12-17T08:17:39.770Z,52.67
2022-12-17T08:20:26.611Z,52.73
2022-12-17T08:23:18.746Z,51.67
2022-12-17T08:26:04.397Z,48.60
2022-12-17T08:28:51.155Z,48.17
2022-12-17T08:31:37.970Z,49.63
2022-12-17T08:34:25.207Z,49.27
2022-12-17T08:37:11.235Z,48.80
2022-12-17T08:39:57.418Z,48.17
2022-12-17T08:42:43.168Z,47.80
2022-12-17T08:45:29.480Z,47.80
2022-12-17T08:48:26.858Z,48.43
2022-12-17T08:51:13.767Z,47.13
2022-12-17T08:53:59.624Z,46.27
2022-12-17T08:56:45.339Z,46.73
2022-12-17T08:59:30.942Z,46.27
2022-12-17T09:02:17.395Z,45.43
2022-12-17T09:05:03.551Z,45.73
2022-12-17T09:07:50.448Z,44.67
2022-12-17T09:10:36.757Z,44.90
2022-12-17T09:13:22.753Z,43.27
2022-12-17T09:16:12.520Z,43.47
2022-12-17T09:18:58.879Z,43.37
2022-12-17T09:21:46.410Z,42.27
2022-12-17T09:24:33.821Z,40.20
2022-12-17T09:27:20.099Z,40.07
2022-12-17T09:30:06.308Z,39.80
2022-12-17T09:32:52.103Z,40.07
2022-12-17T09:35:38.029Z,38.03
2022-12-17T09:38:23.956Z,40.93
2022-12-17T09:41:11.632Z,38.27
2022-12-17T09:44:04.040Z,37.83
2022-12-17T09:46:58.239Z,38.10
2022-12-17T09:49:46.127Z,37.13
2022-12-17T09:52:40.990Z,36.23
2022-12-17T09:55:53.782Z,34.63
2022-12-17T09:58:42.986Z,33.23
2022-12-17T10:01:35.344Z,33.33
2022-12-17T10:04:22.114Z,31.33
2022-12-17T10:07:07.990Z,31.30
2022-12-17T10:09:55.142Z,31.73
2022-12-17T10:12:43.069Z,31.53
2022-12-17T10:15:33.778Z,29.93
2022-12-17T10:18:25.191Z,29.33
2022-12-17T10:21:16.310Z,30.03
2022-12-17T10:24:02.466Z,29.20
2022-12-17T10:26:50.693Z,29.07
2022-12-17T10:29:42.554Z,27.87
2022-12-17T10:32:41.148Z,27.07
2022-12-17T10:35:30.641Z,29.30
2022-12-17T10:38:18.776Z,27.13
2022-12-17T10:41:04.550Z,26.70
2022-12-17T10:43:52.799Z,27.83
2022-12-17T10:46:43.142Z,28.17
2022-12-17T10:49:36.334Z,31.17
2022-12-17T10:52:25.769Z,26.73
2022-12-17T10:55:18.313Z,26.93
2022-12-17T10:58:05.297Z,26.60
2022-12-17T11:00:54.645Z,27.03
2022-12-17T11:03:56.185Z,26.90
2022-12-17T11:06:48.267Z,27.83
2022-12-17T11:09:42.223Z,28.33
2022-12-17T11:12:31.025Z,28.50
2022-12-17T11:15:23.574Z,26.97
2022-12-17T11:18:11.812Z,28.80
2022-12-17T11:21:06.000Z,28.93
2022-12-17T11:24:01.725Z,31.63
2022-12-17T11:26:52.440Z,31.20
2022-12-17T11:29:39.248Z,32.67
2022-12-17T11:32:59.967Z,30.80
2022-12-17T11:35:51.986Z,49.90
2022-12-17T11:38:48.494Z,31.07
2022-12-17T11:41:42.902Z,32.17
2022-12-17T11:44:39.918Z,32.43
2022-12-17T11:47:36.021Z,30.47
2022-12-17T11:50:30.744Z,31.53
2022-12-17T11:53:27.548Z,32.07
2022-12-17T11:56:20.991Z,31.03
2022-12-17T11:59:11.344Z,32.57
2022-12-17T12:02:04.468Z,32.73
2022-12-17T12:05:09.327Z,31.70
2022-12-17T12:08:01.536Z,33.27
2022-12-17T12:10:55.836Z,34.10
2022-12-17T12:13:47.815Z,34.43
2022-12-17T12:16:43.921Z,34.77
2022-12-17T12:19:38.169Z,34.10
2022-12-17T12:22:33.117Z,34.40
2022-12-17T12:25:36.201Z,34.30
2022-12-17T12:28:35.894Z,34.67
2022-12-17T12:31:31.746Z,34.70
2022-12-17T12:34:21.419Z,36.40
2022-12-17T12:37:09.408Z,28.87
2022-12-17T12:39:59.130Z,34.87
2022-12-17T12:42:52.461Z,33.37
2022-12-17T12:45:54.185Z,35.70
2022-12-17T12:48:52.384Z,35.23
2022-12-17T12:51:43.316Z,34.07
2022-12-17T12:54:47.096Z,32.43
2022-12-17T12:57:50.454Z,34.37
2022-12-17T13:00:56.351Z,31.17
2022-12-17T13:03:48.646Z,33.27
2022-12-17T13:06:43.234Z,31.80
2022-12-17T13:09:38.734Z,33.37
2022-12-17T13:12:29.807Z,34.27
2022-12-17T13:15:16.877Z,33.30
2022-12-17T13:17:56.368Z,34.57
2022-12-17T13:20:28.585Z,36.93
2022-12-17T13:23:17.034Z,35.70
2022-12-17T13:25:45.626Z,35.17
2022-12-17T13:28:28.498Z,38.27
2022-12-17T13:31:04.583Z,38.17
2022-12-17T13:33:41.105Z,38.03
2022-12-17T13:36:18.466Z,39.53
2022-12-17T13:38:56.142Z,38.30
2022-12-17T13:41:31.029Z,42.03
2022-12-17T13:44:02.724Z,43.20
2022-12-17T13:46:46.619Z,39.37
2022-12-17T13:49:19.885Z,38.20
2022-12-17T13:51:48.878Z,39.30
2022-12-17T13:54:20.359Z,39.57
2022-12-17T13:56:48.923Z,37.73
2022-12-17T13:59:21.117Z,38.57
2022-12-17T14:01:51.769Z,37.63
2022-12-17T14:04:23.621Z,37.50
2022-12-17T14:06:52.870Z,34.77
2022-12-17T14:09:25.154Z,38.03
2022-12-17T14:12:11.527Z,38.93
2022-12-17T14:14:41.684Z,42.27
2022-12-17T14:17:18.713Z,40.90
2022-12-17T14:19:47.887Z,41.10
2022-12-17T14:22:21.834Z,42.10
2022-12-17T14:24:51.592Z,42.87
2022-12-17T14:27:25.931Z,43.10
2022-12-17T14:29:54.327Z,43.37
2022-12-17T14:32:28.065Z,44.60
2022-12-17T14:35:00.641Z,44.37
2022-12-17T14:37:30.518Z,45.10
2022-12-17T14:40:04.105Z,46.30
2022-12-17T14:42:36.896Z,42.53
2022-12-17T14:45:08.423Z,42.90
2022-12-17T14:47:38.107Z,44.37
2022-12-17T14:50:09.768Z,45.13
2022-12-17T14:52:44.070Z,46.37
2022-12-17T14:55:35.302Z,45.80
2022-12-17T14:58:24.714Z,47.43
2022-12-17T15:00:55.702Z,45.57
2022-12-17T15:03:27.589Z,49.57
2022-12-17T15:05:59.748Z,47.17
2022-12-17T15:08:32.044Z,46.73
2022-12-17T15:11:01.964Z,46.27
2022-12-17T15:13:30.783Z,48.00
2022-12-17T15:15:59.193Z,45.30
2022-12-17T15:18:27.773Z,46.20
2022-12-17T15:20:56.086Z,44.80
2022-12-17T15:23:25.305Z,44.33
2022-12-17T15:25:55.469Z,43.50
2022-12-17T15:28:25.683Z,44.97
2022-12-17T15:30:54.298Z,44.27
2022-12-17T15:33:22.800Z,46.63
2022-12-17T15:35:51.179Z,44.37
2022-12-17T15:38:19.610Z,43.13
2022-12-17T15:40:48.138Z,44.93
2022-12-17T15:43:16.099Z,45.50
2022-12-17T15:45:46.945Z,43.30
2022-12-17T15:48:17.043Z,46.40
2022-12-17T15:50:45.490Z,47.27
2022-12-17T15:53:14.401Z,46.77
2022-12-17T15:55:43.404Z,44.60
2022-12-17T15:58:12.434Z,43.57
2022-12-17T16:00:40.652Z,46.13
2022-12-17T16:03:10.402Z,44.73
2022-12-17T16:05:39.196Z,47.13
2022-12-17T16:08:07.817Z,47.60
2022-12-17T16:10:36.238Z,45.93
2022-12-17T16:13:04.718Z,49.60
2022-12-17T16:15:33.150Z,46.43
2022-12-17T16:18:01.882Z,48.23
2022-12-17T16:20:31.529Z,47.37
2022-12-17T16:23:01.145Z,48.63
2022-12-17T16:25:29.747Z,47.33
2022-12-17T16:27:58.182Z,50.03
2022-12-17T16:30:26.625Z,50.70
2022-12-17T16:32:55.250Z,48.60
2022-12-17T16:35:24.896Z,47.67
2022-12-17T16:37:54.560Z,48.57
2022-12-17T16:40:22.971Z,52.13
2022-12-17T16:42:51.513Z,51.37
2022-12-17T16:45:19.878Z,53.13
2022-12-17T16:47:48.193Z,50.90
2022-12-17T16:50:16.944Z,50.73
2022-12-17T16:52:45.317Z,51.33
2022-12-17T16:55:15.153Z,54.30
2022-12-17T16:57:43.639Z,53.57
2022-12-17T17:00:13.228Z,49.50
2022-12-17T17:02:42.465Z,52.13
2022-12-17T17:05:11.089Z,48.73
2022-12-17T17:07:39.633Z,48.00
2022-12-17T17:10:08.581Z,54.53
2022-12-17T17:12:38.372Z,53.03
2022-12-17T17:15:07.680Z,54.40
2022-12-17T17:17:55.058Z,53.10
2022-12-17T17:20:24.799Z,57.53
2022-12-17T17:22:53.166Z,57.17
2022-12-17T17:25:22.284Z,56.90
2022-12-17T17:27:51.934Z,53.40
2022-12-17T17:30:20.623Z,44.60
2022-12-17T17:32:49.306Z,59.93
2022-12-17T17:35:17.894Z,59.70
2022-12-17T17:37:46.203Z,60.07
2022-12-17T17:40:15.004Z,55.40
2022-12-17T17:42:48.687Z,60.50
2022-12-17T17:45:21.108Z,60.40
2022-12-17T17:47:49.504Z,60.37
2022-12-17T17:50:17.872Z,59.80
2022-12-17T17:52:46.604Z,55.97
2022-12-17T17:55:15.040Z,50.97
2022-12-17T17:57:43.497Z,47.80
2022-12-17T18:00:12.922Z,49.33
2022-12-17T18:02:42.676Z,53.63
2022-12-17T18:05:11.381Z,52.33
2022-12-17T18:07:39.701Z,50.87
2022-12-17T18:10:09.209Z,53.57
2022-12-17T18:12:54.833Z,55.37
2022-12-17T18:15:23.266Z,43.10
2022-12-17T18:17:53.206Z,50.67
2022-12-17T18:20:21.445Z,50.93
2022-12-17T18:22:50.587Z,55.20
2022-12-17T18:25:19.122Z,55.87
2022-12-17T18:27:47.529Z,56.57
2022-12-17T18:30:17.047Z,52.13
2022-12-17T18:32:45.703Z,57.40
2022-12-17T18:35:15.448Z,58.60
2022-12-17T18:37:44.183Z,62.97
2022-12-17T18:40:12.805Z,60.93
2022-12-17T18:42:58.931Z,60.77
2022-12-17T18:45:27.269Z,60.07
2022-12-17T18:47:55.846Z,57.53
2022-12-17T18:50:25.481Z,59.93
2022-12-17T18:52:53.930Z,57.87
2022-12-17T18:55:22.351Z,58.03
2022-12-17T18:57:50.746Z,56.93
2022-12-17T19:00:19.401Z,55.47
2022-12-17T19:02:48.074Z,56.53
2022-12-17T19:05:16.794Z,55.53
2022-12-17T19:07:46.647Z,54.27
2022-12-17T19:10:15.194Z,56.80
2022-12-17T19:12:43.675Z,55.43
2022-12-17T19:15:12.254Z,52.47
2022-12-17T19:17:40.815Z,54.70
2022-12-17T19:20:10.236Z,52.97
2022-12-17T19:22:38.844Z,51.40
2022-12-17T19:25:09.177Z,47.33
2022-12-17T19:27:37.742Z,48.97
2022-12-17T19:30:06.959Z,50.33
2022-12-17T19:32:35.385Z,47.47
2022-12-17T19:35:03.854Z,49.17
2022-12-17T19:37:32.174Z,46.63
2022-12-17T19:40:00.930Z,44.07
2022-12-17T19:42:37.143Z,43.17
2022-12-17T19:45:06.744Z,46.57
2022-12-17T19:47:35.175Z,45.33
2022-12-17T19:50:03.573Z,45.57
2022-12-17T19:52:32.290Z,42.83
2022-12-17T19:55:01.913Z,46.47
2022-12-17T19:57:31.797Z,45.60
2022-12-17T20:00:00.242Z,47.37
2022-12-17T20:02:32.827Z,45.57
2022-12-17T20:05:01.962Z,48.13
2022-12-17T20:07:30.406Z,47.57
2022-12-17T20:09:58.856Z,45.90
2022-12-17T20:12:27.430Z,48.67
2022-12-17T20:14:57.020Z,48.57
2022-12-17T20:17:26.399Z,48.50
2022-12-17T20:19:56.420Z,47.07
2022-12-17T20:22:26.645Z,47.40
2022-12-17T20:24:55.049Z,45.57
2022-12-17T20:27:23.347Z,47.53
2022-12-17T20:29:51.739Z,47.90
2022-12-17T20:32:21.585Z,48.87
2022-12-17T20:34:50.081Z,50.30
2022-12-17T20:37:18.494Z,48.57
2022-12-17T20:39:46.909Z,49.80
2022-12-17T20:42:15.294Z,49.43
2022-12-17T20:44:46.423Z,51.03
2022-12-17T20:47:18.439Z,48.73
2022-12-17T20:49:48.355Z,46.50
2022-12-17T20:52:16.919Z,47.20
2022-12-17T20:54:45.324Z,47.70
2022-12-17T20:57:14.157Z,48.37
2022-12-17T20:59:42.399Z,45.67
2022-12-17T21:02:11.900Z,48.70
2022-12-17T21:04:40.508Z,47.93
2022-12-17T21:07:10.271Z,47.27
2022-12-17T21:09:38.543Z,49.07
2022-12-17T21:12:07.654Z,50.10
2022-12-17T21:14:36.195Z,49.87
2022-12-17T21:17:05.239Z,51.27
2022-12-17T21:19:33.852Z,50.47
2022-12-17T21:22:02.418Z,53.10
2022-12-17T21:24:32.224Z,50.13
2022-12-17T21:27:00.724Z,50.33
2022-12-17T21:29:29.563Z,51.50
2022-12-17T21:31:57.969Z,49.60
2022-12-17T21:34:29.289Z,50.53
2022-12-17T21:36:57.679Z,51.27
2022-12-17T21:39:26.363Z,52.77
2022-12-17T21:42:13.656Z,51.70
2022-12-17T21:44:42.341Z,52.97
2022-12-17T21:47:11.114Z,55.23
2022-12-17T21:49:39.365Z,53.37
2022-12-17T21:52:09.834Z,53.50
2022-12-17T21:54:39.661Z,53.23
2022-12-17T21:57:10.148Z,55.67
2022-12-17T21:59:38.537Z,53.93
2022-12-17T22:02:07.142Z,52.73
2022-12-17T22:04:35.685Z,54.47
2022-12-17T22:07:10.393Z,54.50
2022-12-17T22:09:54.517Z,51.83
2022-12-17T22:12:49.370Z,55.20
2022-12-17T22:15:18.080Z,51.00
2022-12-17T22:17:47.149Z,51.03
2022-12-17T22:20:17.452Z,54.73
2022-12-17T22:22:46.687Z,54.90
2022-12-17T22:25:15.681Z,53.07
2022-12-17T22:27:45.714Z,54.83
2022-12-17T22:30:34.111Z,52.80
2022-12-17T22:33:06.467Z,52.63
2022-12-17T22:37:28.161Z,56.23
2022-12-17T22:42:09.876Z,53.83
2022-12-17T22:44:39.380Z,54.43
2022-12-17T22:44:53.515Z,57.83
2022-12-17T22:47:22.553Z,57.17
2022-12-17T22:49:51.083Z,55.10
2022-12-17T22:52:20.547Z,58.43
2022-12-17T22:54:49.105Z,58.13
2022-12-17T22:57:35.290Z,57.37
2022-12-17T23:00:10.976Z,52.37
2022-12-17T23:02:39.652Z,57.17
2022-12-17T23:05:08.494Z,56.07
2022-12-17T23:07:36.876Z,58.27
2022-12-17T23:10:05.561Z,56.17
2022-12-17T23:12:52.160Z,58.03
2022-12-17T23:15:25.104Z,59.30
2022-12-17T23:17:55.784Z,58.87
2022-12-17T23:20:25.046Z,60.10
2022-12-17T23:22:53.319Z,60.90
2022-12-17T23:25:22.008Z,60.60
2022-12-17T23:27:50.563Z,56.90
2022-12-17T23:30:19.666Z,58.53
2022-12-17T23:32:49.314Z,60.00
2022-12-17T23:35:17.768Z,63.77
2022-12-17T23:37:46.146Z,59.80
2022-12-17T23:40:14.970Z,62.00
2022-12-17T23:42:43.644Z,61.97
2022-12-17T23:45:12.622Z,64.73
2022-12-17T23:47:41.320Z,64.07
2022-12-17T23:50:12.181Z,64.33
2022-12-17T23:52:41.153Z,64.73
2022-12-17T23:55:11.681Z,64.10
2022-12-17T23:57:40.292Z,64.27
